createdAt,value
2022-07-27T00:01:50.675Z,69.97
2022-07-27T00:04:38.156Z,69.82
2022-07-27T00:07:24.748Z,70.35
2022-07-27T00:10:10.862Z,70.03
2022-07-27T00:12:57.463Z,69.66
2022-07-27T00:15:43.848Z,69.45
2022-07-27T00:18:30.156Z,69.51
2022-07-27T00:21:16.443Z,69.71
2022-07-27T00:24:03.074Z,69.26
2022-07-27T00:26:49.213Z,70.15
2022-07-27T00:29:35.855Z,71.05
2022-07-27T00:32:22.279Z,70.77
2022-07-27T00:35:09.372Z,70.49
2022-07-27T00:37:55.829Z,70.83
2022-07-27T00:40:42.595Z,71.78
2022-07-27T00:43:28.749Z,70.69
2022-07-27T00:46:15.335Z,71.75
2022-07-27T00:49:02.084Z,71.84
2022-07-27T00:51:50.230Z,72.47
2022-07-27T00:54:36.611Z,72.53
2022-07-27T00:57:23.703Z,73.96
2022-07-27T01:00:10.566Z,71.98
2022-07-27T01:02:57.610Z,72.47
2022-07-27T01:05:44.612Z,71.62
2022-07-27T01:08:30.965Z,72.53
2022-07-27T01:11:17.362Z,72.08
2022-07-27T01:14:03.758Z,72.15
2022-07-27T01:16:51.801Z,71.74
2022-07-27T01:19:38.467Z,71.58
2022-07-27T01:22:25.604Z,71.73
2022-07-27T01:25:12.499Z,71.81
2022-07-27T01:27:59.007Z,72.10
2022-07-27T01:30:45.713Z,72.28
2022-07-27T01:33:32.177Z,72.48
2022-07-27T01:36:18.874Z,73.46
2022-07-27T01:39:05.190Z,74.18
2022-07-27T01:41:51.387Z,73.64
2022-07-27T01:44:37.493Z,74.11
2022-07-27T01:47:27.041Z,75.13
2022-07-27T01:50:13.447Z,75.68
2022-07-27T01:52:59.748Z,76.14
2022-07-27T01:55:46.261Z,77.56
2022-07-27T01:58:32.615Z,78.07
2022-07-27T02:01:18.914Z,79.21
2022-07-27T02:04:05.553Z,77.82
2022-07-27T02:06:52.000Z,78.56
2022-07-27T02:09:38.460Z,78.11
2022-07-27T02:12:36.825Z,78.43
2022-07-27T02:15:26.231Z,78.92
2022-07-27T02:18:29.447Z,78.61
2022-07-27T02:21:20.450Z,79.39
2022-07-27T02:24:07.015Z,79.25
2022-07-27T02:26:53.666Z,79.46
2022-07-27T02:29:40.039Z,79.94
2022-07-27T02:32:26.661Z,79.89
2022-07-27T02:35:18.558Z,79.20
2022-07-27T02:38:06.289Z,79.04
2022-07-27T02:40:52.568Z,79.83
2022-07-27T02:43:38.904Z,80.52
2022-07-27T02:46:25.423Z,81.35
2022-07-27T02:49:12.547Z,81.83
2022-07-27T02:51:59.561Z,81.22
2022-07-27T02:54:45.764Z,81.14
2022-07-27T02:57:34.354Z,81.38
2022-07-27T03:00:22.199Z,82.04
2022-07-27T03:03:08.540Z,82.11
2022-07-27T03:05:54.775Z,82.49
2022-07-27T03:08:42.088Z,83.07
2022-07-27T03:11:28.684Z,83.01
2022-07-27T03:14:15.224Z,83.99
2022-07-27T03:17:01.726Z,84.61
2022-07-27T03:19:49.694Z,84.65
2022-07-27T03:22:35.921Z,84.53
2022-07-27T03:25:22.903Z,84.47
2022-07-27T03:28:09.443Z,83.84
2022-07-27T03:30:55.930Z,84.20
2022-07-27T03:33:42.640Z,84.94
2022-07-27T03:36:28.950Z,85.15
2022-07-27T03:39:17.094Z,85.69
2022-07-27T03:42:03.986Z,85.79
2022-07-27T03:44:51.913Z,85.42
2022-07-27T03:47:38.437Z,85.05
2022-07-27T03:50:24.961Z,85.44
2022-07-27T03:53:11.991Z,85.70
2022-07-27T03:55:58.365Z,85.48
2022-07-27T03:58:46.140Z,85.63
2022-07-27T04:01:32.468Z,85.95
2022-07-27T04:04:19.020Z,86.58
2022-07-27T04:07:05.279Z,87.44
2022-07-27T04:09:51.693Z,87.57
2022-07-27T04:12:39.446Z,87.58
2022-07-27T04:15:26.324Z,87.90
2022-07-27T04:18:12.679Z,87.57
2022-07-27T04:21:01.870Z,87.33
2022-07-27T04:23:48.423Z,87.68
2022-07-27T04:26:34.910Z,86.57
2022-07-27T04:29:21.995Z,87.11
2022-07-27T04:32:08.716Z,87.51
2022-07-27T04:34:55.232Z,87.99
2022-07-27T04:37:41.797Z,88.49
2022-07-27T04:40:45.696Z,87.35
2022-07-27T04:43:32.176Z,86.60
2022-07-27T04:46:18.485Z,86.36
2022-07-27T04:49:05.418Z,86.43
2022-07-27T04:51:51.687Z,86.17
2022-07-27T04:54:37.928Z,86.25
2022-07-27T04:57:24.515Z,85.60
2022-07-27T05:00:11.344Z,86.23
2022-07-27T05:02:57.695Z,85.82
2022-07-27T05:05:49.822Z,85.54
2022-07-27T05:08:36.943Z,85.10
2022-07-27T05:11:23.175Z,84.56
2022-07-27T05:14:09.572Z,84.49
2022-07-27T05:16:56.239Z,83.63
2022-07-27T05:19:42.481Z,83.11
2022-07-27T05:22:28.794Z,83.86
2022-07-27T05:25:14.988Z,84.13
2022-07-27T05:28:01.546Z,83.26
2022-07-27T05:30:47.993Z,81.34
2022-07-27T05:33:34.680Z,81.71
2022-07-27T05:36:21.060Z,81.30
2022-07-27T05:39:13.272Z,79.53
2022-07-27T05:42:00.386Z,78.39
2022-07-27T05:44:46.973Z,78.95
2022-07-27T05:47:33.334Z,79.71
2022-07-27T05:50:19.622Z,79.47
2022-07-27T05:53:06.184Z,77.82
2022-07-27T05:55:58.524Z,76.95
2022-07-27T05:58:45.939Z,76.32
2022-07-27T06:01:32.280Z,76.87
2022-07-27T06:04:18.895Z,77.74
2022-07-27T06:07:23.926Z,78.78
2022-07-27T06:10:11.586Z,77.76
2022-07-27T06:12:58.390Z,77.63
2022-07-27T06:15:44.593Z,77.81
2022-07-27T06:18:31.094Z,76.57
2022-07-27T06:21:17.643Z,77.60
2022-07-27T06:24:04.062Z,76.11
2022-07-27T06:26:50.515Z,74.43
2022-07-27T06:29:37.195Z,74.89
2022-07-27T06:32:23.392Z,74.75
2022-07-27T06:35:12.610Z,74.03
2022-07-27T06:37:59.000Z,73.50
2022-07-27T06:40:45.464Z,72.12
2022-07-27T06:43:32.879Z,73.23
2022-07-27T06:46:19.112Z,73.47
2022-07-27T06:49:05.647Z,73.76
2022-07-27T06:51:53.161Z,71.82
2022-07-27T06:54:39.800Z,72.25
2022-07-27T06:57:26.267Z,72.22
2022-07-27T07:00:13.378Z,70.95
2022-07-27T07:03:05.485Z,70.67
2022-07-27T07:05:52.156Z,70.03
2022-07-27T07:08:38.336Z,71.38
2022-07-27T07:11:24.996Z,70.60
2022-07-27T07:14:11.613Z,68.29
2022-07-27T07:16:57.976Z,68.24
2022-07-27T07:19:44.206Z,67.48
2022-07-27T07:22:30.481Z,67.56
2022-07-27T07:25:16.904Z,66.43
2022-07-27T07:28:04.611Z,66.63
2022-07-27T07:30:51.362Z,66.60
2022-07-27T07:33:37.837Z,67.78
2022-07-27T07:36:24.538Z,67.50
2022-07-27T07:39:11.327Z,66.19
2022-07-27T07:41:58.208Z,65.71
2022-07-27T07:44:44.398Z,65.34
2022-07-27T07:47:30.736Z,64.13
2022-07-27T07:50:18.235Z,63.11
2022-07-27T07:53:04.939Z,65.28
2022-07-27T07:55:56.583Z,63.91
2022-07-27T07:58:43.227Z,66.65
2022-07-27T08:01:29.659Z,65.95
2022-07-27T08:04:16.286Z,65.68
2022-07-27T08:07:06.109Z,63.81
2022-07-27T08:09:52.290Z,64.23
2022-07-27T08:12:42.439Z,66.88
2022-07-27T08:15:35.039Z,67.40
2022-07-27T08:18:22.294Z,66.50
2022-07-27T08:21:08.847Z,68.73
2022-07-27T08:23:55.309Z,69.09
2022-07-27T08:26:45.052Z,69.47
2022-07-27T08:29:36.772Z,69.29
2022-07-27T08:32:25.183Z,68.43
2022-07-27T08:35:20.051Z,68.72
2022-07-27T08:38:09.310Z,69.16
2022-07-27T08:40:56.232Z,67.66
2022-07-27T08:43:45.578Z,66.25
2022-07-27T08:46:32.985Z,65.95
2022-07-27T08:49:20.042Z,63.50
2022-07-27T08:52:08.048Z,63.11
2022-07-27T08:54:54.882Z,61.73
2022-07-27T08:57:41.051Z,60.67
2022-07-27T09:00:27.962Z,61.13
2022-07-27T09:03:20.014Z,58.77
2022-07-27T09:06:06.990Z,58.72
2022-07-27T09:09:00.472Z,59.00
2022-07-27T09:12:05.638Z,58.82
2022-07-27T09:14:53.327Z,57.44
2022-07-27T09:17:48.424Z,57.06
2022-07-27T09:20:35.766Z,58.48
2022-07-27T09:23:28.189Z,58.17
2022-07-27T09:26:30.371Z,58.05
2022-07-27T09:29:18.031Z,57.88
2022-07-27T09:32:15.823Z,55.09
2022-07-27T09:35:20.826Z,52.53
2022-07-27T09:38:20.464Z,54.15
2022-07-27T09:41:07.252Z,54.32
2022-07-27T09:47:21.765Z,53.55
2022-07-27T09:50:23.832Z,50.65
2022-07-27T09:53:41.789Z,51.25
2022-07-27T09:56:32.477Z,51.77
2022-07-27T09:59:19.587Z,51.05
2022-07-27T10:02:06.338Z,50.21
2022-07-27T10:04:53.144Z,49.23
2022-07-27T10:07:40.084Z,49.11
2022-07-27T10:10:26.792Z,48.79
2022-07-27T10:13:13.294Z,49.61
2022-07-27T10:16:01.158Z,48.79
2022-07-27T10:19:12.571Z,46.93
2022-07-27T10:21:58.753Z,48.07
2022-07-27T10:24:58.642Z,47.91
2022-07-27T10:28:07.508Z,49.13
2022-07-27T10:31:18.419Z,49.74
2022-07-27T10:34:06.600Z,49.52
2022-07-27T10:36:54.060Z,48.06
2022-07-27T10:39:43.465Z,47.35
2022-07-27T10:42:30.819Z,48.82
2022-07-27T10:45:18.406Z,48.81
2022-07-27T10:48:04.802Z,49.56
2022-07-27T10:50:51.253Z,50.25
2022-07-27T10:54:09.764Z,51.16
2022-07-27T10:56:50.813Z,50.37
2022-07-27T11:00:06.814Z,48.35
2022-07-27T11:02:47.102Z,46.48
2022-07-27T11:05:59.002Z,48.34
2022-07-27T11:08:47.464Z,47.96
2022-07-27T11:11:37.535Z,48.30
2022-07-27T11:14:29.488Z,48.64
2022-07-27T11:17:52.408Z,47.44
2022-07-27T11:20:31.633Z,47.65
2022-07-27T11:23:50.543Z,47.36
2022-07-27T11:26:29.854Z,47.11
2022-07-27T11:29:17.929Z,46.26
2022-07-27T11:32:04.648Z,45.85
2022-07-27T11:34:51.324Z,45.85
2022-07-27T11:37:37.636Z,45.17
2022-07-27T11:41:07.061Z,45.91
2022-07-27T11:43:48.822Z,46.08
2022-07-27T11:46:42.473Z,46.58
2022-07-27T11:49:31.165Z,46.53
2022-07-27T11:52:18.478Z,45.84
2022-07-27T11:55:05.199Z,45.16
2022-07-27T11:57:53.439Z,45.34
2022-07-27T12:00:44.391Z,44.97
2022-07-27T12:03:45.996Z,44.87
2022-07-27T12:06:35.770Z,44.10
2022-07-27T12:09:23.106Z,44.50
2022-07-27T12:12:16.460Z,43.77
2022-07-27T12:15:45.788Z,42.85
2022-07-27T12:18:26.523Z,44.18
2022-07-27T12:21:19.433Z,43.39
2022-07-27T12:24:06.063Z,43.42
2022-07-27T12:27:26.208Z,44.81
2022-07-27T12:30:14.083Z,45.48
2022-07-27T12:33:01.658Z,44.05
2022-07-27T12:35:48.039Z,44.00
2022-07-27T12:38:44.891Z,45.38
2022-07-27T12:41:36.546Z,45.92
2022-07-27T12:44:35.039Z,47.24
2022-07-27T12:47:40.117Z,47.49
2022-07-27T12:50:29.668Z,46.63
2022-07-27T12:53:17.015Z,46.84
2022-07-27T12:56:08.258Z,45.93
2022-07-27T12:58:59.424Z,44.79
2022-07-27T13:01:45.886Z,45.58
2022-07-27T13:04:32.458Z,44.31
2022-07-27T13:07:19.027Z,44.99
2022-07-27T13:10:08.355Z,45.15
2022-07-27T13:12:54.818Z,45.53
2022-07-27T13:15:41.194Z,45.19
2022-07-27T13:18:27.516Z,45.75
2022-07-27T13:21:14.105Z,45.63
2022-07-27T13:24:02.747Z,45.14
2022-07-27T13:26:49.488Z,44.12
2022-07-27T13:29:36.035Z,44.08
2022-07-27T13:32:23.147Z,45.46
2022-07-27T13:35:14.384Z,43.77
2022-07-27T13:38:00.601Z,43.50
2022-07-27T13:40:47.998Z,44.75
2022-07-27T13:43:34.551Z,41.30
2022-07-27T13:46:21.202Z,40.28
2022-07-27T13:49:07.566Z,40.29
2022-07-27T13:51:54.719Z,39.71
2022-07-27T13:54:41.844Z,39.66
2022-07-27T13:57:28.292Z,40.47
2022-07-27T14:00:16.046Z,41.38
2022-07-27T14:03:02.510Z,40.78
2022-07-27T14:05:49.930Z,41.11
2022-07-27T14:08:37.012Z,41.89
2022-07-27T14:11:23.314Z,42.56
2022-07-27T14:14:09.739Z,42.74
2022-07-27T14:16:55.960Z,42.65
2022-07-27T14:19:42.304Z,42.90
2022-07-27T14:22:28.582Z,42.96
2022-07-27T14:25:14.887Z,41.90
2022-07-27T14:28:01.335Z,42.39
2022-07-27T14:30:48.215Z,41.27
2022-07-27T14:33:36.489Z,41.49
2022-07-27T14:36:23.625Z,42.58
2022-07-27T14:39:10.747Z,41.84
2022-07-27T14:41:57.897Z,41.96
2022-07-27T14:44:47.751Z,41.08
2022-07-27T14:47:34.401Z,42.29
2022-07-27T14:50:20.623Z,40.88
2022-07-27T14:53:06.855Z,41.59
2022-07-27T14:55:53.678Z,40.75
2022-07-27T14:58:40.241Z,40.81
2022-07-27T15:01:27.073Z,41.65
2022-07-27T15:04:13.794Z,42.21
2022-07-27T15:07:00.873Z,41.99
2022-07-27T15:09:48.523Z,42.83
2022-07-27T15:12:37.923Z,42.05
2022-07-27T15:15:26.596Z,42.70
2022-07-27T15:18:13.054Z,42.63
2022-07-27T15:20:59.676Z,42.17
2022-07-27T15:23:46.194Z,41.90
2022-07-27T15:26:33.006Z,42.46
2022-07-27T15:29:19.286Z,42.68
2022-07-27T15:32:06.959Z,42.12
2022-07-27T15:34:53.516Z,42.61
2022-07-27T15:37:39.693Z,42.65
2022-07-27T15:40:38.393Z,42.18
2022-07-27T15:43:25.260Z,41.85
2022-07-27T15:46:11.754Z,41.56
2022-07-27T15:49:01.778Z,41.96
2022-07-27T15:51:48.431Z,42.06
2022-07-27T15:54:38.948Z,41.27
2022-07-27T15:57:28.804Z,41.82
2022-07-27T16:00:16.371Z,41.43
2022-07-27T16:03:04.483Z,42.20
2022-07-27T16:05:51.244Z,42.86
2022-07-27T16:08:37.554Z,43.44
2022-07-27T16:11:23.867Z,42.76
2022-07-27T16:14:10.354Z,42.91
2022-07-27T16:16:56.717Z,43.04
2022-07-27T16:19:43.277Z,43.02
2022-07-27T16:22:31.986Z,42.83
2022-07-27T16:25:18.482Z,43.25
2022-07-27T16:28:05.373Z,42.69
2022-07-27T16:30:51.945Z,42.95
2022-07-27T16:33:38.847Z,42.16
2022-07-27T16:36:25.815Z,41.88
2022-07-27T16:39:12.172Z,42.34
2022-07-27T16:41:58.755Z,42.62
2022-07-27T16:44:45.078Z,43.26
2022-07-27T16:47:31.174Z,43.60
2022-07-27T16:50:18.424Z,42.45
2022-07-27T16:53:04.998Z,42.54
2022-07-27T16:55:51.292Z,43.19
2022-07-27T16:58:38.528Z,42.75
2022-07-27T17:01:26.769Z,42.28
2022-07-27T17:04:13.634Z,42.86
2022-07-27T17:07:00.315Z,43.47
2022-07-27T17:09:46.537Z,44.21
2022-07-27T17:12:38.074Z,43.83
2022-07-27T17:15:25.715Z,43.58
2022-07-27T17:18:12.467Z,43.79
2022-07-27T17:20:58.955Z,44.13
2022-07-27T17:23:45.272Z,44.35
2022-07-27T17:26:31.831Z,43.80
2022-07-27T17:29:18.025Z,43.36
2022-07-27T17:32:04.305Z,43.44
2022-07-27T17:34:50.518Z,43.23
2022-07-27T17:38:03.486Z,44.28
2022-07-27T17:40:43.114Z,43.46
2022-07-27T17:43:29.309Z,43.31
2022-07-27T17:46:15.752Z,43.38
2022-07-27T17:49:02.467Z,43.50
2022-07-27T17:51:48.778Z,43.60
2022-07-27T17:54:35.612Z,43.36
2022-07-27T17:57:22.995Z,43.18
2022-07-27T18:00:10.944Z,43.50
2022-07-27T18:02:57.341Z,43.09
2022-07-27T18:05:44.349Z,42.99
2022-07-27T18:08:30.569Z,43.63
2022-07-27T18:11:16.776Z,43.54
2022-07-27T18:14:03.207Z,43.60
2022-07-27T18:16:49.602Z,43.71
2022-07-27T18:19:36.184Z,44.19
2022-07-27T18:22:22.557Z,43.75
2022-07-27T18:25:09.558Z,44.10
2022-07-27T18:27:55.876Z,44.72
2022-07-27T18:30:43.451Z,44.95
2022-07-27T18:33:36.301Z,45.07
2022-07-27T18:36:23.025Z,45.45
2022-07-27T18:39:09.378Z,45.77
2022-07-27T18:42:01.682Z,45.56
2022-07-27T18:44:48.123Z,46.04
2022-07-27T18:47:34.577Z,46.12
2022-07-27T18:50:21.255Z,45.71
2022-07-27T18:53:08.929Z,45.90
2022-07-27T18:55:56.648Z,46.40
2022-07-27T18:58:43.151Z,46.37
2022-07-27T19:01:29.822Z,46.51
2022-07-27T19:04:16.786Z,46.47
2022-07-27T19:07:06.274Z,46.81
2022-07-27T19:09:52.710Z,47.08
2022-07-27T19:12:38.959Z,47.36
2022-07-27T19:15:25.236Z,47.63
2022-07-27T19:18:11.916Z,47.21
2022-07-27T19:20:58.282Z,47.69
2022-07-27T19:23:44.904Z,46.83
2022-07-27T19:26:31.274Z,47.29
2022-07-27T19:29:19.758Z,47.80
2022-07-27T19:32:07.766Z,47.15
2022-07-27T19:34:54.259Z,47.42
2022-07-27T19:37:40.438Z,46.43
2022-07-27T19:40:43.989Z,47.24
2022-07-27T19:43:33.458Z,47.12
2022-07-27T19:46:19.740Z,47.11
2022-07-27T19:49:06.489Z,47.05
2022-07-27T19:51:53.018Z,47.25
2022-07-27T19:54:39.612Z,47.09
2022-07-27T19:57:26.467Z,47.27
2022-07-27T20:00:13.635Z,47.14
2022-07-27T20:02:59.845Z,47.17
2022-07-27T20:05:47.611Z,47.60
2022-07-27T20:08:34.853Z,48.21
2022-07-27T20:11:21.011Z,47.86
2022-07-27T20:14:07.387Z,48.12
2022-07-27T20:16:53.791Z,48.23
2022-07-27T20:19:40.364Z,47.92
2022-07-27T20:22:26.715Z,48.33
2022-07-27T20:25:14.864Z,48.63
2022-07-27T20:28:02.947Z,48.35
2022-07-27T20:30:49.425Z,48.66
2022-07-27T20:33:36.694Z,48.71
2022-07-27T20:36:23.313Z,48.68
2022-07-27T20:39:12.823Z,48.37
2022-07-27T20:42:03.800Z,47.72
2022-07-27T20:44:50.299Z,47.86
2022-07-27T20:47:38.367Z,47.63
2022-07-27T20:50:25.316Z,47.40
2022-07-27T20:53:11.950Z,47.46
2022-07-27T20:55:58.499Z,47.54
2022-07-27T20:58:44.831Z,47.47
2022-07-27T21:01:31.259Z,47.06
2022-07-27T21:04:19.055Z,47.75
2022-07-27T21:07:05.479Z,47.41
2022-07-27T21:09:51.963Z,47.23
2022-07-27T21:12:38.546Z,47.06
2022-07-27T21:15:34.106Z,46.95
2022-07-27T21:18:20.919Z,46.73
2022-07-27T21:21:07.144Z,46.44
2022-07-27T21:24:12.364Z,47.31
2022-07-27T21:27:04.178Z,48.10
2022-07-27T21:29:51.766Z,48.24
2022-07-27T21:32:38.171Z,48.47
2022-07-27T21:35:24.852Z,47.80
2022-07-27T21:38:11.170Z,48.33
2022-07-27T21:40:57.620Z,48.04
2022-07-27T21:43:44.493Z,50.22
2022-07-27T21:46:31.151Z,50.21
2022-07-27T21:49:17.607Z,48.64
2022-07-27T21:52:05.043Z,50.13
2022-07-27T21:54:51.961Z,49.84
2022-07-27T21:57:38.207Z,48.52
2022-07-27T22:00:25.669Z,48.21
2022-07-27T22:03:12.266Z,48.74
2022-07-27T22:05:58.287Z,49.66
2022-07-27T22:08:48.817Z,51.12
2022-07-27T22:11:35.398Z,52.13
2022-07-27T22:14:21.877Z,54.34
2022-07-27T22:17:08.096Z,55.33
2022-07-27T22:19:54.351Z,56.85
2022-07-27T22:22:40.523Z,57.28
2022-07-27T22:25:27.151Z,58.15
2022-07-27T22:28:13.441Z,57.34
2022-07-27T22:31:21.800Z,58.29
2022-07-27T22:34:06.317Z,59.37
2022-07-27T22:36:53.254Z,60.02
2022-07-27T22:39:39.782Z,59.86
2022-07-27T22:42:26.120Z,59.76
2022-07-27T22:45:12.422Z,59.98
2022-07-27T22:47:59.027Z,60.55
2022-07-27T22:50:45.529Z,60.05
2022-07-27T22:53:31.657Z,59.78
2022-07-27T22:56:18.078Z,61.47
2022-07-27T22:59:04.620Z,61.76
2022-07-27T23:01:50.988Z,62.03
2022-07-27T23:04:37.582Z,61.99
2022-07-27T23:07:24.595Z,62.33
2022-07-27T23:10:31.003Z,63.49
2022-07-27T23:13:19.095Z,63.81
2022-07-27T23:16:05.856Z,63.42
2022-07-27T23:18:52.043Z,63.46
2022-07-27T23:21:39.637Z,64.22
2022-07-27T23:24:28.856Z,63.72
2022-07-27T23:27:16.021Z,64.75
2022-07-27T23:30:02.618Z,64.44
2022-07-27T23:32:49.116Z,64.76
2022-07-27T23:35:35.683Z,65.38
2022-07-27T23:38:22.133Z,66.40
2022-07-27T23:41:08.826Z,67.40
2022-07-27T23:43:55.068Z,67.50
2022-07-27T23:46:41.217Z,68.01
2022-07-27T23:49:27.405Z,67.98
2022-07-27T23:52:13.759Z,67.43
2022-07-27T23:55:00.477Z,67.86
2022-07-27T23:57:47.140Z,68.49
